マレ の空港の天気 - METARとTAF

マレ国際空港 ( VRMM / MLE ) - モルディブ Hulhule Island, North Male Atoll
飛行場実況気象(Metar)
観測時間07/29 07:00 MVT (07/29 02:00 UTC)
風向・風速西北西 4m/s
視程10km以上
天気現象
少しの雲 雲底高度 550m
全天の8割程度の雲 雲底高度 3660m
気温29℃
湿度79%
気圧1012hPa
METARVRMM 290200Z 29007KT 9999 FEW018 BKN120 29/25 Q1012 NOSIG
過去の天気等 Google飛行場航空写真 Wunderground天気予報

過去48時間のMETAR

飛行場予報(TAF)
発表時間: 7/29 04:00 MVT (7/28 23:00 UTC)
予報対象時間: 29日5時 MVT ~ 30日11時 MVT
風向・風速西 5m/s
視程10km以上
全天の4割程度の塔状積雲 雲底高度 520m
29日5時 MVT ~ 29日11時 MVT に一時的に
全天の4割程度の積乱雲 雲底高度 490m
TAF VRMM 282300Z 2900/3006 28010KT 9999 SCT017TCU
TEMPO 2900/2906 SCT016CB